Time;durP1;ratioP1;P1;durP2;ratioP2;P2;SDS_P1;SDS_P2;PMS_P1;PMS_P2;Temp;Humidity;BMP_temperature;BMP_pressure;BME280_temperature;BME280_humidity;BME280_pressure;Samples;Min_cycle;Max_cycle;Signal;HPM_P1;HPM_P2
2022/04/22 00:00:29;;;;;;;;;10.00;9.33;;;;;18.79;37.54;99818.03;2103461;27;46403;-59
2022/04/22 00:01:30;;;;;;;;;6.40;6.40;;;;;18.79;37.62;99826.09;2094147;28;47412;-60
2022/04/22 00:02:30;;;;;;;;;10.00;10.00;;;;;18.78;37.70;99826.22;2094583;28;47447;-61
2022/04/22 00:03:31;;;;;;;;;8.33;8.33;;;;;18.79;37.59;99819.88;2102619;28;47815;-61
2022/04/22 00:04:31;;;;;;;;;9.25;8.25;;;;;18.76;37.58;99820.94;2104036;28;47903;-60
2022/04/22 00:05:32;;;;;;;;;7.50;7.50;;;;;18.77;37.74;99816.44;2101567;28;47398;-60
2022/04/22 00:06:32;;;;;;;;;8.67;7.67;;;;;18.76;37.67;99815.56;2104220;28;47797;-62
2022/04/22 00:07:32;;;;;;;;;10.00;8.67;;;;;18.75;37.65;99813.00;2098174;27;47615;-61
2022/04/22 00:08:33;;;;;;;;;10.00;8.33;;;;;18.75;37.76;99813.84;2095126;28;48202;-60
2022/04/22 00:09:34;;;;;;;;;9.00;9.00;;;;;18.74;37.72;99820.19;2097411;28;47304;-60
2022/04/22 00:10:34;;;;;;;;;8.33;8.33;;;;;18.74;37.49;99817.50;2096347;28;47915;-61
2022/04/22 00:11:34;;;;;;;;;3.00;3.00;;;;;18.74;37.54;99819.34;2091045;28;47632;-61
2022/04/22 00:12:35;;;;;;;;;8.00;7.00;;;;;18.73;37.68;99820.31;2099100;27;47779;-61
2022/04/22 00:13:35;;;;;;;;;7.33;7.33;;;;;18.72;37.76;99815.91;2104872;27;48151;-60
2022/04/22 00:14:36;;;;;;;;;7.67;7.67;;;;;18.70;37.69;99823.22;2102149;28;47938;-62
2022/04/22 00:15:36;;;;;;;;;11.50;11.50;;;;;18.69;37.60;99816.13;2075007;28;47814;-62
2022/04/22 00:16:37;;;;;;;;;8.33;8.33;;;;;18.68;37.88;99817.09;2071915;28;47454;-60
2022/04/22 00:17:37;;;;;;;;;9.00;8.67;;;;;18.67;37.78;99821.59;2104606;27;48102;-62
2022/04/22 00:18:38;;;;;;;;;10.00;9.25;;;;;18.66;37.88;99817.19;2106847;27;48068;-60
2022/04/22 00:19:38;;;;;;;;;10.50;8.75;;;;;18.67;37.90;99815.34;2103570;27;47423;-60
2022/04/22 00:20:39;;;;;;;;;9.00;8.00;;;;;18.66;37.89;99824.38;2099093;27;48050;-61
2022/04/22 00:21:42;;;;;;;;;8.00;6.00;;;;;18.66;37.72;99816.31;2103620;27;47628;-61
2022/04/22 00:22:44;;;;;;;;;7.75;7.75;;;;;18.66;37.94;99819.00;2098027;27;47694;-61
2022/04/22 00:23:45;;;;;;;;;9.80;8.80;;;;;18.65;37.76;99814.59;2106579;27;47086;-61
2022/04/22 00:24:45;;;;;;;;;4.00;3.00;;;;;18.64;37.99;99819.13;2098405;27;46804;-61
2022/04/22 00:25:46;;;;;;;;;6.00;6.00;;;;;18.64;38.12;99815.56;2103967;28;48035;-61
2022/04/22 00:26:46;;;;;;;;;7.33;7.33;;;;;18.63;37.94;99817.38;2101010;27;48293;-61
2022/04/22 00:27:47;;;;;;;;;6.33;6.33;;;;;18.62;37.96;99818.34;2103337;27;47669;-61
2022/04/22 00:28:47;;;;;;;;;9.50;9.50;;;;;18.61;37.76;99808.56;2104962;27;46606;-61
2022/04/22 00:29:48;;;;;;;;;6.00;6.00;;;;;18.61;38.17;99811.25;2092099;28;47203;-62
2022/04/22 00:30:48;;;;;;;;;7.00;7.00;;;;;18.61;37.92;99815.75;2082513;28;48173;-61
2022/04/22 00:31:49;;;;;;;;;7.67;7.67;;;;;18.61;38.03;99807.69;2097275;28;47967;-61
2022/04/22 00:32:49;;;;;;;;;8.00;8.00;;;;;18.59;38.29;99807.81;2100881;27;48148;-61
2022/04/22 00:33:49;;;;;;;;;8.00;8.00;;;;;18.59;37.95;99809.63;2091279;28;47431;-61
2022/04/22 00:34:50;;;;;;;;;7.67;7.67;;;;;18.58;38.15;99810.59;2093610;28;48222;-61
2022/04/22 00:35:50;;;;;;;;;8.00;8.00;;;;;18.58;38.01;99810.59;2099316;28;47602;-60
2022/04/22 00:36:51;;;;;;;;;8.67;8.00;;;;;18.56;38.31;99808.03;2101197;28;47532;-60
2022/04/22 00:37:51;;;;;;;;;7.75;7.00;;;;;18.56;38.27;99804.47;2095006;28;46989;-62
2022/04/22 00:38:51;;;;;;;;;6.33;6.33;;;;;18.56;38.51;99815.22;2095260;28;47514;-60
2022/04/22 00:39:52;;;;;;;;;7.25;7.25;;;;;18.54;38.18;99801.88;2105889;27;47953;-60
2022/04/22 00:40:55;;;;;;;;;7.00;7.00;;;;;18.54;38.48;99809.94;2076150;28;47606;-61
2022/04/22 00:41:55;;;;;;;;;8.25;8.25;;;;;18.54;38.00;99812.63;2078703;28;47800;-61
2022/04/22 00:42:56;;;;;;;;;10.00;8.50;;;;;18.52;38.30;99804.66;2103032;27;47905;-61
2022/04/22 00:43:56;;;;;;;;;10.00;9.00;;;;;18.53;38.37;99811.75;2105418;27;47668;-61
2022/04/22 00:44:57;;;;;;;;;6.00;5.67;;;;;18.53;38.14;99808.22;2101922;27;47721;-61
2022/04/22 00:45:57;;;;;;;;;7.33;7.00;;;;;18.50;38.29;99798.53;2103220;27;47699;-61
2022/04/22 00:46:57;;;;;;;;;8.25;8.25;;;;;18.48;38.38;99803.16;2101120;27;46722;-61
2022/04/22 00:47:58;;;;;;;;;9.67;7.67;;;;;18.47;38.32;99801.44;2106487;27;47727;-61
2022/04/22 00:48:58;;;;;;;;;8.50;8.50;;;;;18.47;38.46;99803.28;2094340;28;47184;-61
2022/04/22 00:49:59;;;;;;;;;7.75;7.75;;;;;18.45;38.36;99803.38;2094549;28;47568;-61
2022/04/22 00:50:59;;;;;;;;;9.25;7.75;;;;;18.44;38.22;99804.34;2100243;27;47961;-61
2022/04/22 00:52:02;;;;;;;;;8.00;8.00;;;;;18.43;38.38;99812.53;2102157;27;47474;-61
2022/04/22 00:53:03;;;;;;;;;8.50;8.25;;;;;18.42;38.61;99800.03;2094149;28;47570;-60
2022/04/22 00:54:04;;;;;;;;;8.67;7.00;;;;;18.40;38.64;99807.34;2085847;28;47435;-61
2022/04/22 00:55:06;;;;;;;;;7.60;7.60;;;;;18.40;38.79;99807.34;2092484;28;47865;-62
2022/04/22 00:56:13;;;;;;;;;11.00;10.80;;;;;18.38;38.71;99810.13;2105631;27;47730;-61
2022/04/22 00:57:15;;;;;;;;;9.00;9.00;;;;;18.37;38.70;99805.72;2102604;28;48261;-60
2022/04/22 00:58:15;;;;;;;;;9.50;7.75;;;;;18.36;38.75;99804.00;2103262;27;47556;-60
2022/04/22 00:59:17;;;;;;;;;7.33;7.00;;;;;18.35;38.51;99807.66;2104935;27;47778;-61
2022/04/22 01:00:18;;;;;;;;;10.20;8.80;;;;;18.35;38.61;99804.97;2098753;27;46605;-61
2022/04/22 01:01:19;;;;;;;;;10.33;8.33;;;;;18.35;38.88;99804.13;2100680;27;47540;-60
2022/04/22 01:02:19;;;;;;;;;10.25;9.25;;;;;18.33;38.80;99801.53;2104631;27;48093;-60
2022/04/22 01:03:20;;;;;;;;;9.67;9.67;;;;;18.33;38.90;99798.00;2103651;27;47076;-61
2022/04/22 01:09:51;;;;;;;;;9.00;7.25;;;;;18.26;38.99;99799.34;2103602;28;45564;-61
2022/04/22 01:10:52;;;;;;;;;7.50;6.75;;;;;18.23;39.16;99790.56;2104944;27;48059;-62
2022/04/22 01:11:52;;;;;;;;;10.00;9.67;;;;;18.22;38.81;99796.03;2108533;27;47429;-61
2022/04/22 01:12:53;;;;;;;;;8.67;8.00;;;;;18.20;38.98;99790.75;2101220;27;48007;-62
2022/04/22 01:13:54;;;;;;;;;8.33;8.33;;;;;18.19;39.43;99789.03;2098040;28;46867;-62
2022/04/22 01:14:55;;;;;;;;;9.25;8.25;;;;;18.19;39.13;99793.56;2085462;28;48546;-62
2022/04/22 01:15:56;;;;;;;;;8.33;7.33;;;;;18.17;39.52;99787.44;2091909;28;47047;-61
2022/04/22 01:16:56;;;;;;;;;6.80;6.80;;;;;18.17;39.09;99788.28;2101754;27;47691;-61
2022/04/22 01:17:56;;;;;;;;;9.33;8.33;;;;;18.16;39.36;99797.28;2104044;28;47702;-61
2022/04/22 01:18:57;;;;;;;;;9.25;8.00;;;;;18.15;39.29;99786.66;2098890;27;47974;-60
2022/04/22 01:19:57;;;;;;;;;1.00;0.00;;;;;18.15;39.29;99792.03;2086707;28;47323;-61
2022/04/22 01:21:01;;;;;;;;;11.67;9.33;;;;;18.15;39.26;99794.72;2082800;28;47698;-60
2022/04/22 01:22:02;;;;;;;;;10.00;10.00;;;;;18.14;39.20;99790.31;2091143;28;47285;-61
2022/04/22 01:23:03;;;;;;;;;8.00;8.00;;;;;18.13;39.52;99791.28;2087006;28;47270;-61
2022/04/22 01:24:04;;;;;;;;;9.33;7.67;;;;;18.12;39.43;99792.25;2095049;28;47924;-61
2022/04/22 01:25:05;;;;;;;;;7.67;7.67;;;;;18.10;39.58;99786.97;2103038;27;47800;-61
2022/04/22 01:26:06;;;;;;;;;7.00;7.00;;;;;18.10;39.63;99786.13;2094524;28;47862;-61
2022/04/22 01:27:10;;;;;;;;;9.40;9.40;;;;;18.08;39.34;99780.84;2092425;28;47916;-61
2022/04/22 01:28:10;;;;;;;;;5.00;5.00;;;;;18.08;39.39;99777.31;2105588;27;47622;-61
2022/04/22 01:29:11;;;;;;;;;9.33;9.33;;;;;18.06;39.67;99785.47;2101443;27;47263;-61
2022/04/22 01:30:12;;;;;;;;;8.25;8.25;;;;;18.06;39.46;99784.63;2098035;27;47385;-61
2022/04/22 01:31:12;;;;;;;;;9.00;9.00;;;;;18.04;39.33;99791.88;2101577;27;47531;-61
2022/04/22 01:32:13;;;;;;;;;6.00;6.00;;;;;18.04;39.55;99790.09;2105020;27;47643;-60
2022/04/22 01:33:14;;;;;;;;;6.60;6.40;;;;;18.03;39.68;99776.75;2107567;27;48152;-62
2022/04/22 01:34:15;;;;;;;;;6.67;6.67;;;;;18.01;39.59;99779.53;2104477;27;47496;-61
2022/04/22 01:35:15;;;;;;;;;6.20;4.60;;;;;18.00;39.75;99785.88;2103137;28;47475;-61
2022/04/22 01:36:16;;;;;;;;;8.67;8.67;;;;;17.98;39.66;99779.75;2107648;27;47357;-61
2022/04/22 01:37:16;;;;;;;;;7.00;7.00;;;;;17.97;39.88;99778.03;2096959;28;45803;-61
2022/04/22 01:38:17;;;;;;;;;8.33;8.33;;;;;17.97;40.00;99780.72;2098620;28;47692;-61
2022/04/22 01:39:17;;;;;;;;;7.33;7.33;;;;;17.94;39.89;99776.41;2103261;27;47814;-61
2022/04/22 01:40:18;;;;;;;;;8.75;8.00;;;;;17.93;39.94;99780.06;2107977;27;48102;-61
2022/04/22 01:41:19;;;;;;;;;7.00;7.00;;;;;17.92;40.00;99780.19;2102382;27;47434;-61
2022/04/22 01:42:20;;;;;;;;;9.00;9.00;;;;;17.90;40.13;99769.50;2098148;27;47383;-61
2022/04/22 01:43:21;;;;;;;;;8.50;8.50;;;;;17.90;39.57;99782.94;2103722;27;48048;-61
2022/04/22 01:44:22;;;;;;;;;8.67;7.33;;;;;17.91;39.98;99775.72;2100145;27;47626;-61
2022/04/22 01:45:22;;;;;;;;;9.00;9.00;;;;;17.89;40.11;99778.53;2104105;27;47629;-61
2022/04/22 01:46:23;;;;;;;;;8.67;8.00;;;;;17.89;40.06;99774.97;2103959;27;47863;-62
2022/04/22 01:47:24;;;;;;;;;7.50;7.50;;;;;17.88;39.65;99776.81;2103057;27;47699;-62
2022/04/22 01:48:24;;;;;;;;;8.33;7.67;;;;;17.89;40.02;99772.31;2109750;27;47915;-62
2022/04/22 01:49:25;;;;;;;;;7.33;7.33;;;;;17.88;40.18;99775.94;2083657;28;48045;-61
2022/04/22 01:50:25;;;;;;;;;9.00;9.00;;;;;17.87;40.09;99768.88;2085905;28;47754;-61
2022/04/22 01:51:25;;;;;;;;;10.33;8.67;;;;;17.87;40.05;99766.19;2106569;27;47922;-62
2022/04/22 01:52:26;;;;;;;;;10.00;10.00;;;;;17.87;40.52;99771.53;2096202;28;47464;-61
2022/04/22 01:53:27;;;;;;;;;9.33;8.33;;;;;17.85;40.31;99777.03;2095216;28;47553;-60
2022/04/22 01:54:27;;;;;;;;;8.00;8.00;;;;;17.85;39.91;99771.66;2105971;27;47837;-61
2022/04/22 01:55:28;;;;;;;;;7.67;7.67;;;;;17.83;40.15;99765.53;2103124;27;47664;-61
2022/04/22 01:56:28;;;;;;;;;6.67;6.67;;;;;17.82;40.23;99769.19;2108744;27;47420;-61
2022/04/22 01:57:29;;;;;;;;;10.00;9.00;;;;;17.81;40.35;99772.84;2103260;27;47867;-61
2022/04/22 01:58:29;;;;;;;;;7.33;7.33;;;;;17.81;40.38;99763.91;2103547;28;47395;-60
2022/04/22 01:59:29;;;;;;;;;10.00;10.00;;;;;17.80;40.25;99768.44;2105894;27;47609;-61
2022/04/22 02:00:30;;;;;;;;;9.00;9.00;;;;;17.80;40.19;99772.94;2104507;27;47827;-60
2022/04/22 02:01:30;;;;;;;;;11.00;9.67;;;;;17.78;40.39;99770.31;2100351;27;47643;-61
2022/04/22 02:02:31;;;;;;;;;11.25;10.25;;;;;17.77;40.35;99763.25;2104528;27;47899;-61
2022/04/22 02:03:31;;;;;;;;;10.33;10.33;;;;;17.78;40.26;99766.78;2103769;27;47316;-61
2022/04/22 02:04:32;;;;;;;;;11.00;11.00;;;;;17.78;40.42;99769.47;2100180;28;47638;-61
2022/04/22 02:05:33;;;;;;;;;10.00;10.00;;;;;17.78;40.29;99769.47;2093959;28;47411;-62
2022/04/22 02:06:34;;;;;;;;;12.75;11.75;;;;;17.78;40.24;99772.16;2107605;27;47378;-62
2022/04/22 02:07:34;;;;;;;;;9.67;9.67;;;;;17.75;40.43;99764.31;2107102;27;47403;-61
2022/04/22 02:08:36;;;;;;;;;10.00;10.00;;;;;17.75;40.60;99764.31;2101104;27;47819;-60
2022/04/22 02:09:37;;;;;;;;;11.00;10.25;;;;;17.73;40.31;99761.72;2103745;27;47508;-60
2022/04/22 02:10:37;;;;;;;;;12.67;12.67;;;;;17.73;40.37;99760.88;2104608;27;48095;-61
2022/04/22 02:11:40;;;;;;;;;11.00;11.00;;;;;17.71;40.66;99760.13;2095158;28;47518;-61
2022/04/22 02:12:41;;;;;;;;;11.00;11.00;;;;;17.69;40.56;99757.53;2096140;28;48256;-61
2022/04/22 02:13:41;;;;;;;;;11.00;11.00;;;;;17.66;40.73;99768.44;2106551;27;48060;-60
2022/04/22 02:14:42;;;;;;;;;9.75;8.50;;;;;17.67;40.71;99764.81;2104903;27;46673;-61
2022/04/22 02:15:42;;;;;;;;;10.00;10.00;;;;;17.64;40.87;99765.84;2103341;27;47145;-60
2022/04/22 02:16:43;;;;;;;;;10.75;10.00;;;;;17.64;40.48;99765.84;2105878;27;47478;-61
2022/04/22 02:17:43;;;;;;;;;10.00;10.00;;;;;17.65;40.75;99761.34;2108358;27;47730;-60
2022/04/22 02:18:43;;;;;;;;;8.67;8.67;;;;;17.64;40.71;99767.66;2106783;27;47337;-60
2022/04/22 02:19:44;;;;;;;;;11.33;9.33;;;;;17.64;40.63;99763.16;2105173;27;47580;-61
2022/04/22 02:20:44;;;;;;;;;9.67;9.67;;;;;17.63;40.69;99760.59;2105376;27;47770;-60
2022/04/22 02:21:45;;;;;;;;;9.67;9.67;;;;;17.61;40.62;99765.19;2105000;27;48236;-62
2022/04/22 02:22:46;;;;;;;;;10.50;10.50;;;;;17.59;40.85;99759.06;2107773;27;47744;-62
2022/04/22 02:23:46;;;;;;;;;8.67;8.00;;;;;17.57;40.88;99761.00;2106070;27;47276;-62
2022/04/22 02:24:46;;;;;;;;;9.00;8.75;;;;;17.55;40.66;99761.09;2104023;27;47726;-61
2022/04/22 02:25:47;;;;;;;;;13.00;11.75;;;;;17.53;40.73;99756.78;2105742;27;48321;-61
2022/04/22 02:29:26;;;;;;;;;10.50;10.25;;;;;17.48;40.94;99753.53;2102200;27;47079;-61
2022/04/22 02:30:26;;;;;;;;;11.50;10.25;;;;;17.44;40.93;99746.66;2105227;27;47570;-61
2022/04/22 02:31:26;;;;;;;;;6.75;5.75;;;;;17.43;40.58;99753.00;2103312;27;47456;-62
2022/04/22 02:32:27;;;;;;;;;9.25;9.25;;;;;17.42;40.95;99752.13;2100652;27;47941;-62
2022/04/22 02:33:27;;;;;;;;;9.50;9.50;;;;;17.42;41.15;99752.13;2102899;27;47729;-61
2022/04/22 02:34:28;;;;;;;;;8.00;8.00;;;;;17.41;40.79;99749.56;2099168;27;47186;-62
2022/04/22 02:35:29;;;;;;;;;9.00;8.75;;;;;17.42;41.04;99748.59;2103292;27;47687;-62
2022/04/22 02:36:29;;;;;;;;;9.00;8.00;;;;;17.41;40.98;99746.88;2106831;27;47722;-61
2022/04/22 02:37:29;;;;;;;;;10.00;10.00;;;;;17.40;41.08;99748.66;2086185;28;47502;-62
2022/04/22 02:38:31;;;;;;;;;9.75;8.25;;;;;17.40;41.35;99745.13;2088247;28;47667;-62
2022/04/22 02:39:31;;;;;;;;;10.20;8.40;;;;;17.39;40.88;99746.94;2094027;28;47598;-62
2022/04/22 02:45:48;;;;;;;;;15.20;12.00;;;;;17.35;41.31;99748.97;2103937;27;47650;-60
2022/04/22 02:46:48;;;;;;;;;9.25;9.25;;;;;17.34;41.00;99746.41;2101575;27;47556;-61
2022/04/22 02:47:49;;;;;;;;;8.75;7.25;;;;;17.32;41.21;99745.66;2103004;27;47900;-60
2022/04/22 02:48:51;;;;;;;;;9.75;9.50;;;;;17.32;41.33;99749.19;2107564;27;47330;-60
2022/04/22 02:49:51;;;;;;;;;9.40;9.40;;;;;17.30;41.01;99750.25;2105390;27;47428;-61
2022/04/22 02:50:52;;;;;;;;;12.50;11.75;;;;;17.28;41.03;99749.50;2101074;28;47906;-60
2022/04/22 02:51:52;;;;;;;;;11.25;11.25;;;;;17.26;41.12;99746.88;2107980;27;47121;-61
2022/04/22 02:52:52;;;;;;;;;10.75;10.00;;;;;17.24;41.25;99738.09;2103531;27;47228;-61
2022/04/22 02:53:53;;;;;;;;;12.00;10.25;;;;;17.23;41.33;99739.06;2104255;27;47181;-60
2022/04/22 02:54:54;;;;;;;;;11.80;11.80;;;;;17.22;41.29;99741.84;2107100;27;47558;-61
2022/04/22 02:55:55;;;;;;;;;10.50;9.00;;;;;17.22;41.82;99744.50;2104724;27;46644;-60
2022/04/22 02:56:57;;;;;;;;;9.50;9.50;;;;;17.20;41.63;99741.94;2103676;27;47465;-61
2022/04/22 02:57:57;;;;;;;;;10.20;10.20;;;;;17.20;41.41;99741.94;2103190;27;47166;-61
2022/04/22 02:58:58;;;;;;;;;10.25;10.00;;;;;17.18;41.30;99735.81;2090182;28;47169;-61
2022/04/22 02:59:58;;;;;;;;;9.50;9.50;;;;;17.19;41.41;99734.00;2098138;28;47822;-61
2022/04/22 03:00:59;;;;;;;;;8.00;8.00;;;;;17.18;41.63;99733.13;2103561;27;47734;-61
2022/04/22 03:01:59;;;;;;;;;12.25;11.75;;;;;17.18;41.55;99741.19;2100895;27;47760;-61
2022/04/22 03:03:02;;;;;;;;;10.25;9.50;;;;;17.18;41.49;99737.63;2103417;27;45568;-61
2022/04/22 03:04:04;;;;;;;;;8.20;8.20;;;;;17.16;41.82;99737.75;2096845;28;47361;-61
2022/04/22 03:05:05;;;;;;;;;9.20;9.20;;;;;17.16;41.29;99734.19;2083868;28;47659;-61
2022/04/22 03:06:05;;;;;;;;;10.80;10.80;;;;;17.15;41.63;99735.13;2083169;28;48505;-60
2022/04/22 03:07:06;;;;;;;;;12.25;11.75;;;;;17.14;41.50;99734.28;2087269;28;47643;-59
2022/04/22 03:08:08;;;;;;;;;9.20;9.20;;;;;17.14;41.79;99731.59;2105450;27;47494;-60
2022/04/22 03:09:08;;;;;;;;;9.20;9.20;;;;;17.14;41.82;99733.41;2103604;27;47630;-60
2022/04/22 03:10:09;;;;;;;;;7.75;7.75;;;;;17.14;41.34;99733.41;2106051;27;47612;-61
2022/04/22 03:11:10;;;;;;;;;9.00;9.00;;;;;17.13;41.43;99734.38;2101400;27;47709;-62
2022/04/22 03:12:13;;;;;;;;;13.50;10.00;;;;;17.13;41.37;99727.19;2103514;27;47320;-60
2022/04/22 03:13:13;;;;;;;;;10.00;10.00;;;;;17.13;41.60;99729.00;2092231;28;46466;-60
2022/04/22 03:14:14;;;;;;;;;13.00;11.00;;;;;17.12;41.84;99724.63;2101608;28;48006;-60
2022/04/22 03:15:16;;;;;;;;;10.25;10.25;;;;;17.11;42.00;99722.91;2104868;27;47579;-61
2022/04/22 03:16:23;;;;;;;;;10.00;10.00;;;;;17.11;41.64;99728.25;2103827;27;48137;-61
2022/04/22 03:17:24;;;;;;;;;9.40;8.40;;;;;17.09;41.53;99723.00;2102071;27;47278;-61
2022/04/22 03:18:24;;;;;;;;;9.75;9.25;;;;;17.10;41.98;99723.84;2098061;27;48533;-59
2022/04/22 03:19:25;;;;;;;;;11.50;10.00;;;;;17.09;41.77;99731.03;2099984;27;47896;-60
2022/04/22 03:20:25;;;;;;;;;9.00;9.00;;;;;17.09;41.99;99723.00;2103886;27;46377;-60
2022/04/22 03:21:26;;;;;;;;;11.50;10.25;;;;;17.11;41.62;99730.94;2103116;27;47368;-60
2022/04/22 03:22:26;;;;;;;;;11.25;10.25;;;;;17.11;41.99;99733.63;2108663;27;47546;-60
2022/04/22 03:23:26;;;;;;;;;15.25;12.50;;;;;17.10;42.10;99735.44;2099377;27;47986;-60
2022/04/22 03:24:27;;;;;;;;;15.25;15.25;;;;;17.09;41.82;99735.53;2097924;27;47174;-60
2022/04/22 03:25:27;;;;;;;;;9.25;9.00;;;;;17.08;41.75;99731.13;2103629;27;47599;-62
2022/04/22 03:26:28;;;;;;;;;11.00;10.75;;;;;17.06;41.69;99732.09;2091221;28;47221;-61
2022/04/22 03:27:28;;;;;;;;;10.50;10.50;;;;;17.06;41.95;99732.09;2092130;28;47148;-61
2022/04/22 03:28:29;;;;;;;;;12.25;12.00;;;;;17.04;41.86;99728.66;2103819;27;47337;-61
2022/04/22 03:29:29;;;;;;;;;13.25;12.50;;;;;17.03;41.80;99728.75;2104760;28;47351;-61
2022/04/22 03:30:30;;;;;;;;;9.50;9.50;;;;;17.03;41.54;99726.94;2104651;28;48164;-61
2022/04/22 03:31:30;;;;;;;;;9.50;8.50;;;;;17.03;41.86;99736.81;2081056;28;47668;-61
2022/04/22 03:32:31;;;;;;;;;11.25;10.00;;;;;17.02;41.98;99733.28;2086769;28;47598;-61
2022/04/22 03:33:31;;;;;;;;;12.25;11.00;;;;;17.01;42.12;99734.19;2110845;27;47776;-60
2022/04/22 03:34:32;;;;;;;;;10.25;10.25;;;;;17.03;41.84;99723.41;2104469;27;47285;-61
2022/04/22 03:35:33;;;;;;;;;10.40;10.40;;;;;17.02;41.89;99721.66;2103933;27;47915;-62
2022/04/22 03:36:34;;;;;;;;;8.00;7.00;;;;;17.03;42.03;99736.81;2104661;28;47436;-59
2022/04/22 03:37:34;;;;;;;;;9.20;9.20;;;;;17.03;42.19;99726.94;2105918;27;47343;-59
2022/04/22 03:38:35;;;;;;;;;12.25;11.50;;;;;17.04;42.17;99725.13;2104562;28;47322;-59
2022/04/22 03:39:36;;;;;;;;;12.00;10.40;;;;;17.01;41.84;99715.44;2102977;27;48060;-59
2022/04/22 03:40:37;;;;;;;;;8.75;8.00;;;;;17.00;41.98;99719.06;2103715;27;47833;-59
2022/04/22 03:41:39;;;;;;;;;8.50;8.50;;;;;17.00;42.11;99718.22;2085758;28;47948;-58
2022/04/22 03:42:41;;;;;;;;;11.00;10.20;;;;;16.99;41.77;99719.19;2077269;28;48747;-59
2022/04/22 03:43:41;;;;;;;;;12.40;12.20;;;;;16.99;41.68;99714.69;2076958;28;47555;-60
2022/04/22 03:44:42;;;;;;;;;11.50;10.00;;;;;16.99;41.92;99720.03;2084786;28;47645;-60
2022/04/22 03:45:43;;;;;;;;;9.25;9.25;;;;;16.99;41.98;99719.19;2084681;28;48227;-58
2022/04/22 03:46:43;;;;;;;;;11.00;11.00;;;;;16.98;42.09;99720.13;2081615;28;48026;-59
2022/04/22 03:47:44;;;;;;;;;10.25;10.00;;;;;16.97;41.96;99724.63;2079838;28;47404;-60
2022/04/22 03:48:46;;;;;;;;;9.00;9.00;;;;;16.97;41.57;99726.47;2086468;28;47724;-60
2022/04/22 03:49:47;;;;;;;;;10.00;10.00;;;;;16.97;42.06;99726.47;2085843;28;47340;-60
2022/04/22 03:50:47;;;;;;;;;13.25;12.50;;;;;16.97;41.83;99724.63;2080244;28;47234;-60
2022/04/22 03:51:47;;;;;;;;;7.50;6.50;;;;;16.97;41.96;99715.75;2074854;28;47375;-60
2022/04/22 03:52:48;;;;;;;;;10.50;10.00;;;;;16.97;41.84;99726.47;2088821;28;47695;-60
2022/04/22 03:53:48;;;;;;;;;11.00;10.00;;;;;16.96;42.01;99725.59;2061414;28;47920;-60
2022/04/22 03:54:49;;;;;;;;;11.00;10.00;;;;;16.96;42.01;99722.91;2062443;28;47803;-59
2022/04/22 03:55:49;;;;;;;;;8.75;8.75;;;;;16.96;41.92;99722.06;2079144;28;47349;-61
2022/04/22 03:58:13;;;;;;;;;9.20;9.00;;;;;16.95;41.95;99718.53;2078096;28;48032;-62
2022/04/22 03:59:13;;;;;;;;;10.20;10.20;;;;;16.94;42.00;99722.16;2083702;28;48499;-62
2022/04/22 04:00:14;;;;;;;;;11.50;11.50;;;;;16.94;41.82;99726.66;2088566;28;48062;-60
2022/04/22 04:01:14;;;;;;;;;9.00;9.00;;;;;16.93;42.19;99716.91;2086876;28;47776;-62
2022/04/22 04:02:15;;;;;;;;;9.50;9.50;;;;;16.93;41.71;99715.09;2090447;28;47971;-62
2022/04/22 04:03:17;;;;;;;;;11.75;11.75;;;;;16.90;41.75;99720.66;2086411;28;47478;-62
2022/04/22 04:04:19;;;;;;;;;11.60;11.40;;;;;16.87;42.15;99718.13;2085202;28;49168;-61
2022/04/22 04:05:19;;;;;;;;;10.00;10.00;;;;;16.89;42.26;99710.00;2084766;28;47508;-60
2022/04/22 04:06:20;;;;;;;;;10.25;9.25;;;;;16.88;41.90;99710.97;2092489;28;47442;-61
2022/04/22 04:07:20;;;;;;;;;9.75;9.75;;;;;16.88;42.23;99716.31;2084901;28;47642;-60
2022/04/22 04:08:22;;;;;;;;;10.50;10.50;;;;;16.88;41.98;99710.97;2088663;28;48040;-62
2022/04/22 04:16:00;;;;;;;;;10.00;10.00;;;;;16.84;42.02;99715.66;2102364;28;47954;-62
2022/04/22 04:17:02;;;;;;;;;9.40;9.00;;;;;16.84;41.93;99714.81;2101178;28;47808;-62
2022/04/22 04:18:02;;;;;;;;;10.00;10.00;;;;;16.83;42.08;99710.41;2098011;28;47453;-61
2022/04/22 04:23:14;;;;;;;;;12.60;12.00;;;;;16.80;42.41;99715.97;2096826;28;47661;-62
2022/04/22 04:24:15;;;;;;;;;13.20;12.20;;;;;16.76;42.47;99717.94;2098039;27;47795;-61
2022/04/22 04:25:16;;;;;;;;;9.60;9.60;;;;;16.75;42.43;99713.56;2101893;28;47817;-61
2022/04/22 04:26:17;;;;;;;;;11.25;10.25;;;;;16.74;42.07;99714.50;2078187;28;47329;-61
2022/04/22 04:27:18;;;;;;;;;13.20;12.20;;;;;16.73;42.65;99710.97;2078454;28;47446;-61
2022/04/22 04:28:18;;;;;;;;;8.00;7.75;;;;;16.73;42.50;99708.28;2097538;28;47545;-61
2022/04/22 04:29:19;;;;;;;;;12.50;10.00;;;;;16.74;42.46;99714.50;2094600;28;47270;-61
2022/04/22 04:30:20;;;;;;;;;12.60;12.20;;;;;16.73;42.22;99708.28;2097017;28;47543;-62
2022/04/22 04:31:20;;;;;;;;;13.00;11.25;;;;;16.73;42.10;99707.44;2086315;28;47222;-62
2022/04/22 04:32:21;;;;;;;;;11.50;10.50;;;;;16.72;42.48;99711.06;2092613;28;48102;-61
2022/04/22 04:33:22;;;;;;;;;13.25;13.00;;;;;16.70;42.35;99711.19;2086083;28;47892;-61
2022/04/22 04:34:22;;;;;;;;;11.25;10.75;;;;;16.71;42.02;99699.50;2084673;28;47598;-61
2022/04/22 04:35:22;;;;;;;;;13.75;12.00;;;;;16.71;42.42;99704.00;2076909;28;47818;-60
2022/04/22 04:36:23;;;;;;;;;8.25;8.25;;;;;16.71;42.40;99710.22;2083790;28;47768;-61
2022/04/22 04:37:23;;;;;;;;;10.00;10.00;;;;;16.70;42.54;99708.50;2108277;27;47507;-61
2022/04/22 04:38:27;;;;;;;;;11.75;11.75;;;;;16.70;42.35;99704.97;2095885;28;47669;-60
2022/04/22 04:39:28;;;;;;;;;10.20;10.00;;;;;16.69;42.18;99700.56;2095695;28;47557;-60
2022/04/22 04:40:28;;;;;;;;;11.25;11.25;;;;;16.68;42.54;99706.88;2096752;28;47625;-61
2022/04/22 04:41:28;;;;;;;;;12.50;11.75;;;;;16.67;42.28;99706.00;2104388;28;47598;-61
2022/04/22 04:42:29;;;;;;;;;11.75;11.00;;;;;16.66;42.72;99695.38;2100570;27;47787;-60
2022/04/22 04:43:31;;;;;;;;;12.25;11.50;;;;;16.65;42.23;99699.00;2088201;28;45695;-61
2022/04/22 04:44:31;;;;;;;;;11.80;11.80;;;;;16.64;42.71;99699.94;2086939;28;47789;-60
2022/04/22 04:45:35;;;;;;;;;11.00;11.00;;;;;16.63;42.61;99701.75;2098714;28;47588;-62
2022/04/22 04:46:36;;;;;;;;;10.40;10.40;;;;;16.62;42.71;99700.03;2101472;28;47982;-60
2022/04/22 04:47:40;;;;;;;;;13.25;11.50;;;;;16.61;41.96;99702.81;2103574;28;47714;-61
2022/04/22 04:48:41;;;;;;;;;10.40;10.40;;;;;16.60;42.38;99701.94;2103264;28;47871;-60
2022/04/22 04:49:41;;;;;;;;;9.75;9.75;;;;;16.60;42.75;99696.59;2104124;28;47982;-61
2022/04/22 04:50:51;;;;;;;;;11.75;11.25;;;;;16.62;42.80;99709.88;2104156;28;47915;-62
2022/04/22 04:51:52;;;;;;;;;12.60;11.60;;;;;16.61;42.73;99703.66;2097735;28;47677;-62
2022/04/22 04:52:52;;;;;;;;;10.75;10.75;;;;;16.61;42.63;99705.50;2103959;27;47446;-61
2022/04/22 04:53:53;;;;;;;;;12.00;12.00;;;;;16.60;42.69;99698.41;2102272;28;47434;-61
2022/04/22 04:54:54;;;;;;;;;10.25;10.25;;;;;16.60;42.34;99698.41;2101150;27;47787;-61
2022/04/22 04:55:54;;;;;;;;;12.50;10.00;;;;;16.59;42.71;99708.28;2103138;27;47397;-61
2022/04/22 04:56:54;;;;;;;;;12.50;12.50;;;;;16.58;42.33;99703.88;2104266;28;47401;-61
2022/04/22 04:57:55;;;;;;;;;12.50;11.75;;;;;16.57;42.88;99704.84;2104207;28;47580;-62
2022/04/22 04:58:56;;;;;;;;;11.25;11.25;;;;;16.56;42.57;99696.91;2104703;27;47501;-62
2022/04/22 04:59:56;;;;;;;;;8.25;7.75;;;;;16.55;42.49;99701.41;2099129;27;47569;-62
2022/04/22 05:00:56;;;;;;;;;13.00;13.00;;;;;16.55;42.53;99703.22;2087236;28;47585;-62
2022/04/22 05:01:57;;;;;;;;;13.00;13.00;;;;;16.56;43.05;99702.25;2085017;28;47970;-62
2022/04/22 05:02:57;;;;;;;;;13.75;11.25;;;;;16.55;42.72;99698.72;2100709;27;47119;-61
2022/04/22 05:03:58;;;;;;;;;11.00;11.00;;;;;16.55;42.52;99693.34;2098277;28;47738;-60
2022/04/22 05:04:58;;;;;;;;;13.75;12.75;;;;;16.53;42.85;99695.28;2101940;27;47623;-61
2022/04/22 05:05:58;;;;;;;;;12.00;11.00;;;;;16.53;42.60;99697.09;2101645;28;46496;-62
2022/04/22 05:06:59;;;;;;;;;12.25;11.75;;;;;16.52;43.02;99690.88;2102525;27;47916;-61
2022/04/22 05:08:01;;;;;;;;;14.00;12.75;;;;;16.50;42.91;99690.09;2105742;28;47624;-61
2022/04/22 05:09:02;;;;;;;;;8.20;8.20;;;;;16.49;42.71;99688.38;2103553;28;48012;-59